createdAt,value
2023-01-09T00:01:25.105Z,2.40
2023-01-09T00:03:54.484Z,2.40
2023-01-09T00:06:22.423Z,2.30
2023-01-09T00:08:50.565Z,2.23
2023-01-09T00:11:19.976Z,2.20
2023-01-09T00:13:48.075Z,2.23
2023-01-09T00:16:16.491Z,2.60
2023-01-09T00:18:44.528Z,2.80
2023-01-09T00:21:14.396Z,2.40
2023-01-09T00:23:42.462Z,2.10
2023-01-09T00:26:14.867Z,2.20
2023-01-09T00:28:44.303Z,2.40
2023-01-09T00:31:13.008Z,2.33
2023-01-09T00:33:43.781Z,2.37
2023-01-09T00:36:12.383Z,2.40
2023-01-09T00:38:41.321Z,2.27
2023-01-09T00:41:13.092Z,2.47
2023-01-09T00:43:47.622Z,2.40
2023-01-09T00:46:16.623Z,2.50
2023-01-09T00:48:48.879Z,2.70
2023-01-09T00:51:18.392Z,2.17
2023-01-09T00:53:46.890Z,2.20
2023-01-09T00:56:17.841Z,1.90
2023-01-09T00:58:47.933Z,1.90
2023-01-09T01:01:15.954Z,1.93
2023-01-09T01:03:44.272Z,2.20
2023-01-09T01:06:29.439Z,2.00
2023-01-09T01:08:57.507Z,2.10
2023-01-09T01:11:25.600Z,2.37
2023-01-09T01:13:54.926Z,2.10
2023-01-09T01:16:22.974Z,2.00
2023-01-09T01:18:50.838Z,2.40
2023-01-09T01:21:19.809Z,2.23
2023-01-09T01:23:47.722Z,2.20
2023-01-09T01:26:17.476Z,2.30
2023-01-09T01:28:45.619Z,2.00
2023-01-09T01:31:19.326Z,2.07
2023-01-09T01:33:47.574Z,2.30
2023-01-09T01:36:17.551Z,2.20
2023-01-09T01:38:46.921Z,2.30
2023-01-09T01:41:29.259Z,1.97
2023-01-09T01:43:59.197Z,2.40
2023-01-09T01:46:29.016Z,2.20
2023-01-09T01:49:01.268Z,2.13
2023-01-09T01:51:32.014Z,2.20
2023-01-09T01:54:04.422Z,2.40
2023-01-09T01:56:37.739Z,2.30
2023-01-09T01:59:09.845Z,2.47
2023-01-09T02:01:42.059Z,2.20
2023-01-09T02:04:11.011Z,1.97
2023-01-09T02:06:39.715Z,2.30
2023-01-09T02:09:08.441Z,2.73
2023-01-09T02:11:36.380Z,2.50
2023-01-09T02:14:04.460Z,2.87
2023-01-09T02:16:48.068Z,2.60
2023-01-09T02:19:34.103Z,2.33
2023-01-09T02:22:12.800Z,2.53
2023-01-09T02:25:03.324Z,2.20
2023-01-09T02:28:11.028Z,2.07
2023-01-09T02:30:47.752Z,2.37
2023-01-09T02:33:40.635Z,2.10
2023-01-09T02:36:23.739Z,2.27
2023-01-09T02:39:09.151Z,2.10
2023-01-09T02:41:43.715Z,2.30
2023-01-09T02:44:22.568Z,2.40
2023-01-09T02:47:03.494Z,2.40
2023-01-09T02:49:32.604Z,2.20
2023-01-09T02:52:14.787Z,2.30
2023-01-09T02:54:54.861Z,2.57
2023-01-09T02:57:31.974Z,2.40
2023-01-09T03:00:10.813Z,2.73
2023-01-09T03:02:50.768Z,2.20
2023-01-09T03:05:27.176Z,2.20
2023-01-09T03:08:02.185Z,2.27
2023-01-09T03:10:36.924Z,2.33
2023-01-09T03:13:06.543Z,2.43
2023-01-09T03:15:38.208Z,2.30
2023-01-09T03:18:09.988Z,2.60
2023-01-09T03:20:39.759Z,2.30
2023-01-09T03:23:08.866Z,2.20
2023-01-09T03:25:36.765Z,2.27
2023-01-09T03:28:07.240Z,2.30
2023-01-09T03:30:37.730Z,2.30
2023-01-09T03:33:06.903Z,2.30
2023-01-09T03:35:34.712Z,2.50
2023-01-09T03:38:02.500Z,2.37
2023-01-09T03:40:30.379Z,2.70
2023-01-09T03:42:58.212Z,2.37
2023-01-09T03:45:26.058Z,2.40
2023-01-09T03:47:54.085Z,2.10
2023-01-09T03:50:23.292Z,2.00
2023-01-09T03:52:51.110Z,2.40
2023-01-09T03:55:19.096Z,2.37
2023-01-09T03:57:46.967Z,2.30
2023-01-09T04:00:15.558Z,2.20
2023-01-09T04:02:43.771Z,2.03
2023-01-09T04:05:12.036Z,2.20
2023-01-09T04:07:41.289Z,2.27
2023-01-09T04:10:10.623Z,2.20
2023-01-09T04:12:38.473Z,2.20
2023-01-09T04:15:07.470Z,2.10
2023-01-09T04:17:35.429Z,2.20
2023-01-09T04:20:03.320Z,2.47
2023-01-09T04:22:32.037Z,2.40
2023-01-09T04:25:01.415Z,2.13
2023-01-09T04:27:29.321Z,1.97
2023-01-09T04:29:57.272Z,2.40
2023-01-09T04:32:27.591Z,2.33
2023-01-09T04:34:55.442Z,2.07
2023-01-09T04:37:24.464Z,2.30
2023-01-09T04:39:56.077Z,2.20
2023-01-09T04:42:25.635Z,2.40
2023-01-09T04:44:54.189Z,2.30
2023-01-09T04:47:23.861Z,2.50
2023-01-09T04:49:52.072Z,2.27
2023-01-09T04:52:19.953Z,2.30
2023-01-09T04:54:47.885Z,2.47
2023-01-09T04:57:15.681Z,2.40
2023-01-09T04:59:44.929Z,2.10
2023-01-09T05:02:13.055Z,2.17
2023-01-09T05:04:41.006Z,2.23
2023-01-09T05:07:09.001Z,2.10
2023-01-09T05:09:36.958Z,2.50
2023-01-09T05:12:05.164Z,2.20
2023-01-09T05:14:33.171Z,2.53
2023-01-09T05:17:02.463Z,2.50
2023-01-09T05:19:30.303Z,2.33
2023-01-09T05:21:58.151Z,2.30
2023-01-09T05:24:26.142Z,2.20
2023-01-09T05:26:53.978Z,2.60
2023-01-09T05:29:21.857Z,2.47
2023-01-09T05:31:49.800Z,2.10
2023-01-09T05:34:19.140Z,2.20
2023-01-09T05:36:47.032Z,2.40
2023-01-09T05:39:15.005Z,2.40
2023-01-09T05:41:42.874Z,1.90
2023-01-09T05:44:10.719Z,2.20
2023-01-09T05:46:38.699Z,2.20
2023-01-09T05:49:06.523Z,2.20
2023-01-09T05:51:35.795Z,2.30
2023-01-09T05:54:04.907Z,2.20
2023-01-09T05:56:32.743Z,2.13
2023-01-09T05:59:00.563Z,2.23
2023-01-09T06:01:28.517Z,1.90
2023-01-09T06:03:56.344Z,1.97
2023-01-09T06:06:24.753Z,2.00
2023-01-09T06:08:54.468Z,2.33
2023-01-09T06:11:22.265Z,2.20
2023-01-09T06:13:50.238Z,2.10
2023-01-09T06:16:18.508Z,2.07
2023-01-09T06:18:46.376Z,1.87
2023-01-09T06:21:14.259Z,1.90
2023-01-09T06:23:42.251Z,2.10
2023-01-09T06:26:11.538Z,2.20
2023-01-09T06:28:39.351Z,1.97
2023-01-09T06:31:07.337Z,2.03
2023-01-09T06:33:35.311Z,2.00
2023-01-09T06:36:03.191Z,2.10
2023-01-09T06:38:31.184Z,2.07
2023-01-09T06:40:59.078Z,2.30
2023-01-09T06:43:28.309Z,2.27
2023-01-09T06:45:57.253Z,2.37
2023-01-09T06:48:25.922Z,2.40
2023-01-09T06:50:54.044Z,2.57
2023-01-09T06:53:22.161Z,2.80
2023-01-09T06:55:50.676Z,2.37
2023-01-09T06:58:18.923Z,2.53
2023-01-09T07:00:49.395Z,2.40
2023-01-09T07:03:19.862Z,2.60
2023-01-09T07:05:48.153Z,2.50
2023-01-09T07:08:19.087Z,2.50
2023-01-09T07:10:46.922Z,2.43
2023-01-09T07:13:14.780Z,2.40
2023-01-09T07:15:43.091Z,2.30
2023-01-09T07:18:12.377Z,2.90
2023-01-09T07:20:41.294Z,2.93
2023-01-09T07:23:09.908Z,2.57
2023-01-09T07:25:37.880Z,3.07
2023-01-09T07:28:06.640Z,2.93
2023-01-09T07:30:34.574Z,2.77
2023-01-09T07:33:04.016Z,3.40
2023-01-09T07:35:33.741Z,3.43
2023-01-09T07:38:01.914Z,3.40
2023-01-09T07:40:29.864Z,3.40
2023-01-09T07:42:57.759Z,4.13
2023-01-09T07:45:25.653Z,3.70
2023-01-09T07:47:53.684Z,4.10
2023-01-09T07:50:21.485Z,3.60
2023-01-09T07:52:50.808Z,4.20
2023-01-09T07:55:18.757Z,4.50
2023-01-09T07:57:49.863Z,4.70
2023-01-09T08:00:18.550Z,4.77
2023-01-09T08:02:46.442Z,4.57
2023-01-09T08:05:15.927Z,4.47
2023-01-09T08:07:44.120Z,5.20
2023-01-09T08:10:13.990Z,5.30
2023-01-09T08:12:44.209Z,5.03
2023-01-09T08:15:12.866Z,5.20
2023-01-09T08:17:42.365Z,4.83
2023-01-09T08:20:12.176Z,5.03
2023-01-09T08:22:40.690Z,5.27
2023-01-09T08:25:11.968Z,5.10
2023-01-09T08:27:41.619Z,5.57
2023-01-09T08:30:11.091Z,5.57
2023-01-09T08:32:41.310Z,5.13
2023-01-09T08:35:09.823Z,5.57
2023-01-09T08:37:37.661Z,5.47
2023-01-09T08:40:06.325Z,5.53
2023-01-09T08:42:51.493Z,5.80
2023-01-09T08:45:38.024Z,6.57
2023-01-09T08:48:06.305Z,6.07
2023-01-09T08:50:34.210Z,6.13
2023-01-09T08:53:02.217Z,6.23
2023-01-09T08:55:31.334Z,6.23
2023-01-09T08:57:59.142Z,6.20
2023-01-09T09:00:28.611Z,5.90
2023-01-09T09:02:58.063Z,7.17
2023-01-09T09:05:27.387Z,6.97
2023-01-09T09:07:56.674Z,7.43
2023-01-09T09:10:28.620Z,7.40
2023-01-09T09:12:58.214Z,7.40
2023-01-09T09:15:28.495Z,8.07
2023-01-09T09:17:57.821Z,8.30
2023-01-09T09:20:29.122Z,8.13
2023-01-09T09:22:56.999Z,7.90
2023-01-09T09:25:25.010Z,8.60
2023-01-09T09:27:53.154Z,8.00
2023-01-09T09:30:21.366Z,7.87
2023-01-09T09:32:50.794Z,8.27
2023-01-09T09:35:20.999Z,8.30
2023-01-09T09:37:55.422Z,7.97
2023-01-09T09:40:36.475Z,8.47
2023-01-09T09:43:53.580Z,9.03
2023-01-09T09:46:34.095Z,7.37
2023-01-09T09:49:11.300Z,7.57
2023-01-09T09:51:53.834Z,7.30
2023-01-09T09:54:28.459Z,8.27
2023-01-09T09:56:59.329Z,7.40
2023-01-09T09:59:30.766Z,7.27
2023-01-09T10:02:01.995Z,6.33
2023-01-09T10:04:35.029Z,6.87
2023-01-09T10:07:09.507Z,6.50
2023-01-09T10:09:46.756Z,6.63
2023-01-09T10:12:28.331Z,5.80
2023-01-09T10:14:58.343Z,6.23
2023-01-09T10:17:39.533Z,6.10
2023-01-09T10:20:31.258Z,5.33
2023-01-09T10:23:09.732Z,5.57
2023-01-09T10:25:44.999Z,5.37
2023-01-09T10:28:32.360Z,5.37
2023-01-09T10:31:05.681Z,5.73
2023-01-09T10:33:51.351Z,5.90
2023-01-09T10:36:50.800Z,6.50
2023-01-09T10:39:21.970Z,6.83
2023-01-09T10:41:57.907Z,6.60
2023-01-09T10:44:34.816Z,6.10
2023-01-09T10:47:05.384Z,7.00
2023-01-09T10:49:33.139Z,6.50
2023-01-09T10:52:15.454Z,6.27
2023-01-09T10:54:50.408Z,6.90
2023-01-09T10:57:35.095Z,6.90
2023-01-09T11:00:03.266Z,6.83
2023-01-09T11:02:35.358Z,6.30
2023-01-09T11:05:03.309Z,6.83
2023-01-09T11:07:38.065Z,6.10
2023-01-09T11:10:08.518Z,5.97
2023-01-09T11:12:37.679Z,5.53
2023-01-09T11:15:29.160Z,5.57
2023-01-09T11:18:19.172Z,5.10
2023-01-09T11:20:47.139Z,5.57
2023-01-09T11:23:40.055Z,4.43
2023-01-09T11:26:22.071Z,3.93
2023-01-09T11:29:06.797Z,3.93
2023-01-09T11:31:35.484Z,4.00
2023-01-09T11:34:03.816Z,4.17
2023-01-09T11:36:32.230Z,3.87
2023-01-09T11:39:02.859Z,3.53
2023-01-09T11:41:34.547Z,3.93
2023-01-09T11:44:05.186Z,3.93
2023-01-09T11:46:38.565Z,3.70
2023-01-09T11:49:20.979Z,4.23
2023-01-09T11:52:06.751Z,4.03
2023-01-09T11:54:39.481Z,3.70
2023-01-09T11:57:12.299Z,3.90
2023-01-09T11:59:40.449Z,4.20
2023-01-09T12:02:42.513Z,4.00
2023-01-09T12:05:21.376Z,4.30
2023-01-09T12:08:14.693Z,4.47
2023-01-09T12:10:59.195Z,4.00
2023-01-09T12:13:47.033Z,4.30
2023-01-09T12:16:26.923Z,4.50
2023-01-09T12:19:09.088Z,4.80
2023-01-09T12:21:42.695Z,5.00
2023-01-09T12:24:27.388Z,5.03
2023-01-09T12:27:06.811Z,4.67
2023-01-09T12:29:51.387Z,5.17
2023-01-09T12:32:46.133Z,5.43
2023-01-09T12:35:30.799Z,5.00
2023-01-09T12:38:17.540Z,4.93
2023-01-09T12:41:06.827Z,4.30
2023-01-09T12:43:49.781Z,4.53
2023-01-09T12:46:20.443Z,4.87
2023-01-09T12:49:10.555Z,4.10
2023-01-09T12:51:43.075Z,5.37
2023-01-09T12:54:18.217Z,4.70
2023-01-09T12:56:52.074Z,4.70
2023-01-09T12:59:31.323Z,4.93
2023-01-09T13:02:05.791Z,4.80
2023-01-09T13:04:38.533Z,5.30
2023-01-09T13:07:12.952Z,4.60
2023-01-09T13:09:46.881Z,5.20
2023-01-09T13:12:21.554Z,4.70
2023-01-09T13:14:56.520Z,5.20
2023-01-09T13:17:31.063Z,5.03
2023-01-09T13:19:59.108Z,4.90
2023-01-09T13:22:29.038Z,5.63
2023-01-09T13:25:22.215Z,5.70
2023-01-09T13:27:59.182Z,6.03
2023-01-09T13:30:46.089Z,5.47
2023-01-09T13:33:21.059Z,5.33
2023-01-09T13:35:51.350Z,5.53
2023-01-09T13:38:22.375Z,6.07
2023-01-09T13:41:22.916Z,5.90
2023-01-09T13:43:56.545Z,5.63
2023-01-09T13:46:36.847Z,5.67
2023-01-09T13:49:04.976Z,5.53
2023-01-09T13:51:58.185Z,5.47
2023-01-09T13:55:01.701Z,6.30
2023-01-09T13:57:31.703Z,5.73
2023-01-09T14:00:20.605Z,5.37
2023-01-09T14:03:06.754Z,5.73
2023-01-09T14:06:07.849Z,5.23
2023-01-09T14:08:36.112Z,5.17
2023-01-09T14:11:05.971Z,5.23
2023-01-09T14:13:40.038Z,4.70
2023-01-09T14:16:10.950Z,4.90
2023-01-09T14:18:49.319Z,5.30
2023-01-09T14:21:17.577Z,5.63
2023-01-09T14:23:56.023Z,5.67
2023-01-09T14:26:27.167Z,5.87
2023-01-09T14:29:30.166Z,6.37
2023-01-09T14:32:39.054Z,5.37
2023-01-09T14:35:16.234Z,5.10
2023-01-09T14:37:46.917Z,5.60
2023-01-09T14:40:23.268Z,5.40
2023-01-09T14:42:53.948Z,4.43
2023-01-09T14:45:24.543Z,4.47
2023-01-09T14:47:57.407Z,4.17
2023-01-09T14:50:33.455Z,3.70
2023-01-09T14:53:06.549Z,3.80
2023-01-09T14:55:50.751Z,4.20
2023-01-09T14:58:23.910Z,4.63
2023-01-09T15:00:59.680Z,5.00
2023-01-09T15:03:33.103Z,5.00
2023-01-09T15:06:02.899Z,5.10
2023-01-09T15:08:30.901Z,5.10
2023-01-09T15:10:59.958Z,4.97
2023-01-09T15:13:35.698Z,5.67
2023-01-09T15:16:07.044Z,5.13
2023-01-09T15:18:42.758Z,5.90
2023-01-09T15:21:25.703Z,5.67
2023-01-09T15:23:54.226Z,5.73
2023-01-09T15:26:26.503Z,6.00
2023-01-09T15:28:55.473Z,5.90
2023-01-09T15:31:25.210Z,5.47
2023-01-09T15:33:54.211Z,5.63
2023-01-09T15:36:26.095Z,5.90
2023-01-09T15:38:54.757Z,5.90
2023-01-09T15:41:44.784Z,5.90
2023-01-09T15:44:16.982Z,6.00
2023-01-09T15:46:46.541Z,6.27
2023-01-09T15:49:15.432Z,6.50
2023-01-09T15:51:46.930Z,6.43
2023-01-09T15:54:16.437Z,5.97
2023-01-09T15:56:46.408Z,6.10
2023-01-09T15:59:25.389Z,5.30
2023-01-09T16:02:19.858Z,5.40
2023-01-09T16:04:47.994Z,6.00
2023-01-09T16:07:21.698Z,6.30
2023-01-09T16:09:52.906Z,6.27
2023-01-09T16:12:23.562Z,5.60
2023-01-09T16:14:55.367Z,6.00
2023-01-09T16:17:26.756Z,5.30
2023-01-09T16:19:57.986Z,5.17
2023-01-09T16:22:30.003Z,5.27
2023-01-09T16:25:02.092Z,4.30
2023-01-09T16:27:33.223Z,4.03
2023-01-09T16:30:02.361Z,4.00
2023-01-09T16:32:32.370Z,8.10
2023-01-09T16:35:05.456Z,5.83
2023-01-09T16:37:36.071Z,7.17
2023-01-09T16:40:29.917Z,4.70
2023-01-09T16:43:01.793Z,4.33
2023-01-09T16:45:32.411Z,6.07
2023-01-09T16:48:00.971Z,4.20
2023-01-09T16:50:31.740Z,4.07
2023-01-09T16:53:03.218Z,6.23
2023-01-09T16:55:31.037Z,4.70
2023-01-09T16:57:59.027Z,5.03
2023-01-09T17:00:27.294Z,4.43
2023-01-09T17:02:56.609Z,4.17
2023-01-09T17:05:24.514Z,4.50
2023-01-09T17:07:52.372Z,4.30
2023-01-09T17:10:23.632Z,4.70
2023-01-09T17:12:51.494Z,4.80
2023-01-09T17:15:19.410Z,4.47
2023-01-09T17:17:47.299Z,5.80
2023-01-09T17:20:17.408Z,4.60
2023-01-09T17:22:45.624Z,4.70
2023-01-09T17:25:34.903Z,4.73
2023-01-09T17:28:23.019Z,4.60
2023-01-09T17:30:51.363Z,4.87
2023-01-09T17:33:20.558Z,5.43
2023-01-09T17:35:48.680Z,4.77
2023-01-09T17:38:17.523Z,6.90
2023-01-09T17:40:46.123Z,6.20
2023-01-09T17:43:16.336Z,6.20
2023-01-09T17:45:44.389Z,6.57
2023-01-09T17:48:17.659Z,7.20
2023-01-09T17:50:46.270Z,6.87
2023-01-09T17:53:14.503Z,6.80
2023-01-09T17:55:43.238Z,7.73
2023-01-09T17:58:26.559Z,6.90
2023-01-09T18:00:54.623Z,7.33
2023-01-09T18:03:24.356Z,7.93
2023-01-09T18:05:52.679Z,8.83
2023-01-09T18:08:20.749Z,9.07
2023-01-09T18:10:49.090Z,8.90
2023-01-09T18:13:17.462Z,8.83
2023-01-09T18:15:48.671Z,8.60
2023-01-09T18:18:17.172Z,9.67
2023-01-09T18:20:46.452Z,10.27
2023-01-09T18:23:18.511Z,9.33
2023-01-09T18:25:55.340Z,10.03
2023-01-09T18:28:23.383Z,11.10
2023-01-09T18:30:52.985Z,9.90
2023-01-09T18:33:20.817Z,11.27
2023-01-09T18:35:48.834Z,11.00
2023-01-09T18:38:16.736Z,10.13
2023-01-09T18:40:44.885Z,11.70
2023-01-09T18:43:14.290Z,11.57
2023-01-09T18:45:42.207Z,12.63
2023-01-09T18:48:12.715Z,11.80
2023-01-09T18:50:40.594Z,12.27
2023-01-09T18:53:08.560Z,13.87
2023-01-09T18:55:37.573Z,13.17
2023-01-09T18:58:05.797Z,12.90
2023-01-09T19:00:33.675Z,12.50
2023-01-09T19:03:01.618Z,12.37
2023-01-09T19:05:33.373Z,13.93
2023-01-09T19:08:01.409Z,13.07
2023-01-09T19:10:29.239Z,14.23
2023-01-09T19:12:57.255Z,14.20
2023-01-09T19:15:25.068Z,14.30
2023-01-09T19:17:53.011Z,14.93
2023-01-09T19:20:20.971Z,14.67
2023-01-09T19:22:50.391Z,15.43
2023-01-09T19:25:18.631Z,16.17
2023-01-09T19:27:46.572Z,14.87
2023-01-09T19:30:14.760Z,15.67
2023-01-09T19:32:42.752Z,16.40
2023-01-09T19:35:10.871Z,18.00
2023-01-09T19:37:38.814Z,16.30
2023-01-09T19:40:09.222Z,16.90
2023-01-09T19:42:37.064Z,18.03
2023-01-09T19:45:05.724Z,17.57
2023-01-09T19:47:36.095Z,17.73
2023-01-09T19:50:05.253Z,16.17
2023-01-09T19:52:33.218Z,16.73
2023-01-09T19:55:01.279Z,17.63
2023-01-09T19:57:31.038Z,17.93
2023-01-09T19:59:59.129Z,18.80
2023-01-09T20:02:28.100Z,18.03
2023-01-09T20:04:56.167Z,18.70
2023-01-09T20:07:24.141Z,20.83
2023-01-09T20:09:52.031Z,18.63
2023-01-09T20:12:20.265Z,19.83
2023-01-09T20:14:49.652Z,20.50
2023-01-09T20:17:17.939Z,20.50
2023-01-09T20:19:46.373Z,20.13
2023-01-09T20:22:14.881Z,20.77
2023-01-09T20:24:42.989Z,20.07
2023-01-09T20:27:11.145Z,20.43
2023-01-09T20:29:39.427Z,20.00
2023-01-09T20:32:09.952Z,19.50
2023-01-09T20:34:38.017Z,19.20
2023-01-09T20:37:05.937Z,20.43
2023-01-09T20:39:33.871Z,18.40
2023-01-09T20:42:01.928Z,18.27
2023-01-09T20:44:30.096Z,19.50
2023-01-09T20:46:57.983Z,18.63
2023-01-09T20:49:27.374Z,18.13
2023-01-09T20:51:55.403Z,18.67
2023-01-09T20:54:23.586Z,18.87
2023-01-09T20:56:52.208Z,19.20
2023-01-09T20:59:22.238Z,19.60
2023-01-09T21:01:50.604Z,20.70
2023-01-09T21:04:19.092Z,19.43
2023-01-09T21:06:50.150Z,19.50
2023-01-09T21:09:18.723Z,20.50
2023-01-09T21:11:46.560Z,18.60
2023-01-09T21:14:14.520Z,20.00
2023-01-09T21:16:43.978Z,18.27
2023-01-09T21:19:13.445Z,18.33
2023-01-09T21:21:41.345Z,18.70
2023-01-09T21:24:10.807Z,18.37
2023-01-09T21:26:38.619Z,16.87
2023-01-09T21:29:08.376Z,17.73
2023-01-09T21:31:36.333Z,18.03
2023-01-09T21:34:06.365Z,18.20
2023-01-09T21:36:35.312Z,16.77
2023-01-09T21:39:04.911Z,17.83
2023-01-09T21:41:52.897Z,17.70
2023-01-09T21:44:38.233Z,17.67
2023-01-09T21:47:06.152Z,18.60
2023-01-09T21:49:35.938Z,18.03
2023-01-09T21:52:05.161Z,19.00
2023-01-09T21:54:33.857Z,17.80
2023-01-09T21:57:04.047Z,16.90
2023-01-09T21:59:32.025Z,18.83
2023-01-09T22:02:00.419Z,18.20
2023-01-09T22:04:30.507Z,18.00
2023-01-09T22:06:58.735Z,18.70
2023-01-09T22:09:26.849Z,17.40
2023-01-09T22:11:54.866Z,18.80
2023-01-09T22:14:24.996Z,18.67
2023-01-09T22:16:52.963Z,17.30
2023-01-09T22:19:21.198Z,17.97
2023-01-09T22:21:49.655Z,18.17
2023-01-09T22:24:19.836Z,17.03
2023-01-09T22:26:48.282Z,17.23
2023-01-09T22:29:17.118Z,17.37
2023-01-09T22:31:46.441Z,17.63
2023-01-09T22:34:15.942Z,17.03
2023-01-09T22:36:44.443Z,16.47
2023-01-09T22:39:14.262Z,17.50
2023-01-09T22:41:42.701Z,16.27
2023-01-09T22:44:11.063Z,15.83
2023-01-09T22:46:39.739Z,14.83
2023-01-09T22:49:12.127Z,13.80
2023-01-09T22:51:40.132Z,12.33
2023-01-09T22:54:08.022Z,11.80
2023-01-09T22:56:36.296Z,12.10
2023-01-09T22:59:04.217Z,12.43
2023-01-09T23:01:32.040Z,14.23
2023-01-09T23:04:00.017Z,13.63
2023-01-09T23:06:30.450Z,14.40
2023-01-09T23:08:58.343Z,14.23
2023-01-09T23:11:46.669Z,13.17
2023-01-09T23:14:14.608Z,14.07
2023-01-09T23:16:42.842Z,14.57
2023-01-09T23:19:13.022Z,14.40
2023-01-09T23:21:42.736Z,14.13
2023-01-09T23:24:11.556Z,13.67
2023-01-09T23:26:39.945Z,14.60
2023-01-09T23:29:08.488Z,13.60
2023-01-09T23:31:36.965Z,13.03
2023-01-09T23:34:08.241Z,13.60
2023-01-09T23:36:36.633Z,13.77
2023-01-09T23:39:09.042Z,12.67
2023-01-09T23:41:54.868Z,11.93
2023-01-09T23:44:22.891Z,11.73
2023-01-09T23:46:50.776Z,11.67
2023-01-09T23:49:18.887Z,11.30
2023-01-09T23:51:47.097Z,11.50
2023-01-09T23:54:17.389Z,11.97
2023-01-09T23:56:45.331Z,11.50
2023-01-09T23:59:15.058Z,11.50
